createdAt,value
2023-02-15T00:02:35.776Z,103036.78
2023-02-15T00:07:32.221Z,103035.13
2023-02-15T00:12:30.206Z,103038.00
2023-02-15T00:17:30.271Z,103034.97
2023-02-15T00:22:27.232Z,103026.91
2023-02-15T00:27:23.808Z,103023.34
2023-02-15T00:32:20.178Z,103015.22
2023-02-15T00:37:16.948Z,103022.28
2023-02-15T00:42:13.361Z,103020.59
2023-02-15T00:47:09.745Z,103017.66
2023-02-15T00:52:06.152Z,103013.03
2023-02-15T00:57:02.664Z,103009.88
2023-02-15T01:01:59.103Z,103010.78
2023-02-15T01:06:55.480Z,103009.13
2023-02-15T01:11:51.934Z,103004.56
2023-02-15T01:16:48.362Z,102997.44
2023-02-15T01:21:44.775Z,103000.09
2023-02-15T01:26:41.210Z,102984.63
2023-02-15T01:31:39.793Z,102983.84
2023-02-15T01:36:36.701Z,102977.66
2023-02-15T01:41:33.702Z,102964.75
2023-02-15T01:46:48.261Z,102973.50
2023-02-15T01:51:47.086Z,102957.69
2023-02-15T01:56:43.645Z,102966.50
2023-02-15T02:01:40.322Z,102960.63
2023-02-15T02:06:38.868Z,102956.09
2023-02-15T02:11:35.842Z,102938.81
2023-02-15T02:16:56.071Z,102934.09
2023-02-15T02:22:16.441Z,102930.69
2023-02-15T02:27:38.453Z,102921.69
2023-02-15T02:33:12.929Z,102908.81
2023-02-15T02:38:16.026Z,102903.56
2023-02-15T02:43:27.589Z,102904.34
2023-02-15T02:48:28.775Z,102896.88
2023-02-15T02:53:25.949Z,102897.75
2023-02-15T02:58:32.298Z,102893.78
2023-02-15T03:03:35.253Z,102896.97
2023-02-15T03:08:38.721Z,102884.31
2023-02-15T03:13:36.200Z,102884.16
2023-02-15T03:18:39.739Z,102874.38
2023-02-15T03:23:37.952Z,102876.66
2023-02-15T03:28:42.722Z,102877.09
2023-02-15T03:33:45.567Z,102869.63
2023-02-15T03:38:51.057Z,102867.34
2023-02-15T03:44:03.195Z,102858.81
2023-02-15T03:49:05.740Z,102852.13
2023-02-15T03:54:07.939Z,102845.03
2023-02-15T03:59:24.045Z,102853.00
2023-02-15T04:04:25.482Z,102847.81
2023-02-15T04:09:41.054Z,102844.72
2023-02-15T04:14:56.002Z,102840.16
2023-02-15T04:20:11.135Z,102832.78
2023-02-15T04:25:10.389Z,102831.56
2023-02-15T04:30:08.059Z,102831.56
2023-02-15T04:35:06.262Z,102827.47
2023-02-15T04:40:04.216Z,102823.66
2023-02-15T04:45:00.603Z,102824.44
2023-02-15T04:49:58.165Z,102818.06
2023-02-15T04:54:54.904Z,102809.09
2023-02-15T04:59:51.303Z,102802.88
2023-02-15T05:04:47.826Z,102801.56
2023-02-15T05:09:44.280Z,102803.38
2023-02-15T05:14:40.741Z,102796.16
2023-02-15T05:19:37.153Z,102793.31
2023-02-15T05:24:52.081Z,102783.16
2023-02-15T05:29:48.609Z,102787.63
2023-02-15T05:34:45.029Z,102787.59
2023-02-15T05:39:41.430Z,102791.00
2023-02-15T05:44:37.886Z,102784.72
2023-02-15T05:49:34.349Z,102760.13
2023-02-15T05:54:30.827Z,102761.44
2023-02-15T05:59:27.250Z,102759.50
2023-02-15T06:04:23.688Z,102764.47
2023-02-15T06:09:20.652Z,102760.72
2023-02-15T06:14:17.118Z,102756.19
2023-02-15T06:19:13.538Z,102770.31
2023-02-15T06:24:10.312Z,102764.94
2023-02-15T06:29:07.055Z,102777.00
2023-02-15T06:34:03.593Z,102774.56
2023-02-15T06:39:00.099Z,102790.78
2023-02-15T06:43:56.532Z,102786.25
2023-02-15T06:48:52.994Z,102783.47
2023-02-15T06:53:49.473Z,102773.69
2023-02-15T06:58:50.366Z,102778.25
2023-02-15T07:03:46.869Z,102767.81
2023-02-15T07:08:43.443Z,102761.94
2023-02-15T07:13:39.870Z,102767.50
2023-02-15T07:18:36.507Z,102763.75
2023-02-15T07:23:32.971Z,102750.41
2023-02-15T07:28:29.572Z,102753.31
2023-02-15T07:33:27.862Z,102748.91
2023-02-15T07:38:26.975Z,102748.75
2023-02-15T07:43:23.387Z,102732.59
2023-02-15T07:48:19.907Z,102727.00
2023-02-15T07:53:16.310Z,102726.00
2023-02-15T07:58:12.683Z,102729.69
2023-02-15T08:03:15.042Z,102728.44
2023-02-15T08:08:30.364Z,102718.25
2023-02-15T08:13:26.770Z,102721.78
2023-02-15T08:18:23.193Z,102712.25
2023-02-15T08:23:19.697Z,102702.66
2023-02-15T08:28:16.118Z,102706.94
2023-02-15T08:33:12.591Z,102708.06
2023-02-15T08:38:08.979Z,102708.06
2023-02-15T08:43:05.359Z,102713.53
2023-02-15T08:48:01.798Z,102705.72
2023-02-15T08:52:58.199Z,102707.53
2023-02-15T08:57:56.417Z,102697.69
2023-02-15T09:02:53.224Z,102698.00
2023-02-15T09:07:49.706Z,102698.28
2023-02-15T09:12:46.259Z,102704.22
2023-02-15T09:17:42.695Z,102690.75
2023-02-15T09:22:39.133Z,102688.81
2023-02-15T09:27:35.852Z,102687.47
2023-02-15T09:32:32.264Z,102672.50
2023-02-15T09:37:28.634Z,102673.81
2023-02-15T09:42:57.349Z,102668.78
2023-02-15T09:48:38.772Z,102678.25
2023-02-15T09:54:12.106Z,102670.22
2023-02-15T09:59:41.306Z,102676.16
2023-02-15T10:04:55.284Z,102671.84
2023-02-15T10:10:09.039Z,102677.53
2023-02-15T10:15:32.599Z,102680.41
2023-02-15T10:20:47.490Z,102676.31
2023-02-15T10:26:12.175Z,102667.34
2023-02-15T10:31:22.103Z,102671.53
2023-02-15T10:36:33.637Z,102675.56
2023-02-15T10:41:58.130Z,102685.16
2023-02-15T10:47:19.700Z,102676.66
2023-02-15T10:52:42.175Z,102671.06
2023-02-15T10:57:56.366Z,102665.09
2023-02-15T11:03:05.435Z,102652.00
2023-02-15T11:08:07.206Z,102644.22
2023-02-15T11:13:10.728Z,102638.31
2023-02-15T11:18:22.142Z,102641.63
2023-02-15T11:23:19.349Z,102627.88
2023-02-15T11:28:30.012Z,102637.31
2023-02-15T11:33:39.353Z,102620.06
2023-02-15T11:38:37.495Z,102617.84
2023-02-15T11:44:02.151Z,102601.34
2023-02-15T11:48:59.329Z,102600.84
2023-02-15T11:53:56.670Z,102579.00
2023-02-15T11:59:00.485Z,102567.47
2023-02-15T12:04:15.716Z,102572.31
2023-02-15T12:09:37.021Z,102560.91
2023-02-15T12:14:49.404Z,102542.22
2023-02-15T12:19:50.072Z,102522.09
2023-02-15T12:24:48.269Z,102529.97
2023-02-15T12:29:59.419Z,102519.69
2023-02-15T12:35:07.913Z,102508.53
2023-02-15T12:40:30.345Z,102499.50
2023-02-15T12:45:30.131Z,102485.41
2023-02-15T12:50:34.683Z,102481.59
2023-02-15T12:55:31.677Z,102474.47
2023-02-15T13:00:30.257Z,102457.69
2023-02-15T13:05:35.269Z,102457.16
2023-02-15T13:10:40.338Z,102445.38
2023-02-15T13:15:42.165Z,102449.38
2023-02-15T13:20:41.527Z,102440.16
2023-02-15T13:25:52.507Z,102434.81
2023-02-15T13:30:49.998Z,102419.72
2023-02-15T13:36:04.634Z,102431.56
2023-02-15T13:41:06.237Z,102429.16
2023-02-15T13:46:18.035Z,102411.03
2023-02-15T13:51:39.505Z,102417.03
2023-02-15T13:57:18.724Z,102408.72
2023-02-15T14:02:39.507Z,102412.69
2023-02-15T14:08:01.536Z,102408.84
2023-02-15T14:13:32.470Z,102404.84
2023-02-15T14:18:44.894Z,102397.25
2023-02-15T14:24:02.873Z,102397.16
2023-02-15T14:29:38.602Z,102392.91
2023-02-15T14:34:53.018Z,102385.81
2023-02-15T14:40:25.458Z,102387.66
2023-02-15T14:45:35.146Z,102384.69
2023-02-15T14:50:32.015Z,102381.75
2023-02-15T14:55:37.895Z,102377.69
2023-02-15T15:00:40.291Z,102386.97
2023-02-15T15:05:49.972Z,102394.63
2023-02-15T15:10:47.949Z,102399.47
2023-02-15T15:15:48.171Z,102393.66
2023-02-15T15:20:52.110Z,102387.81
2023-02-15T15:26:18.906Z,102389.34
2023-02-15T15:31:43.242Z,102394.72
2023-02-15T15:37:20.233Z,102392.84
2023-02-15T15:42:28.565Z,102391.09
2023-02-15T15:47:33.668Z,102390.34
2023-02-15T15:52:32.286Z,102389.06
2023-02-15T15:57:34.734Z,102383.41
2023-02-15T16:02:31.236Z,102385.56
2023-02-15T16:07:27.718Z,102379.69
2023-02-15T16:12:25.780Z,102380.47
2023-02-15T16:17:26.208Z,102374.84
2023-02-15T16:22:25.544Z,102381.16
2023-02-15T16:27:30.486Z,102376.00
2023-02-15T16:32:28.949Z,102370.47
2023-02-15T16:37:28.651Z,102373.78
2023-02-15T16:42:25.635Z,102385.56
2023-02-15T16:47:34.399Z,102380.38
2023-02-15T16:52:30.972Z,102379.09
2023-02-15T16:57:39.119Z,102362.69
2023-02-15T17:02:56.388Z,102353.31
2023-02-15T17:08:18.379Z,102358.00
2023-02-15T17:13:16.100Z,102357.91
2023-02-15T17:18:12.455Z,102336.31
2023-02-15T17:23:33.342Z,102358.03
2023-02-15T17:28:32.649Z,102357.81
2023-02-15T17:33:35.323Z,102352.88
2023-02-15T17:38:32.693Z,102357.63
2023-02-15T17:43:29.065Z,102344.66
2023-02-15T17:48:33.016Z,102357.91
2023-02-15T17:53:29.508Z,102365.94
2023-02-15T17:58:25.962Z,102371.38
2023-02-15T18:03:41.078Z,102379.84
2023-02-15T18:08:55.981Z,102394.59
2023-02-15T18:13:52.435Z,102376.34
2023-02-15T18:18:49.362Z,102370.31
2023-02-15T18:23:45.853Z,102372.81
2023-02-15T18:28:42.290Z,102372.59
2023-02-15T18:33:47.570Z,102359.28
2023-02-15T18:38:44.258Z,102355.53
2023-02-15T18:43:40.650Z,102345.88
2023-02-15T18:48:37.148Z,102355.31
2023-02-15T18:53:34.186Z,102340.59
2023-02-15T18:58:30.587Z,102343.78
2023-02-15T19:03:26.983Z,102336.94
2023-02-15T19:08:24.616Z,102331.53
2023-02-15T19:13:21.114Z,102329.53
2023-02-15T19:18:19.069Z,102329.38
2023-02-15T19:23:19.835Z,102344.81
2023-02-15T19:28:25.030Z,102334.91
2023-02-15T19:33:23.722Z,102324.91
2023-02-15T19:38:30.803Z,102326.44
2023-02-15T19:43:27.889Z,102306.91
2023-02-15T19:48:24.751Z,102317.25
2023-02-15T19:53:27.229Z,102314.88
2023-02-15T19:58:23.959Z,102312.41
2023-02-15T20:03:20.430Z,102317.69
2023-02-15T20:08:20.890Z,102327.53
2023-02-15T20:13:19.206Z,102334.03
2023-02-15T20:18:15.636Z,102323.53
2023-02-15T20:23:38.459Z,102317.66
2023-02-15T20:28:34.890Z,102309.88
2023-02-15T20:33:31.400Z,102303.28
2023-02-15T20:38:30.905Z,102302.53
2023-02-15T20:43:27.302Z,102286.31
2023-02-15T20:48:23.753Z,102304.31
2023-02-15T20:53:20.812Z,102302.75
2023-02-15T20:58:24.662Z,102294.06
2023-02-15T21:03:26.258Z,102294.06
2023-02-15T21:08:23.768Z,102294.50
2023-02-15T21:13:24.982Z,102291.06
2023-02-15T21:18:30.086Z,102290.19
2023-02-15T21:23:37.443Z,102284.06
2023-02-15T21:28:33.883Z,102278.81
2023-02-15T21:33:30.260Z,102278.88
2023-02-15T21:38:30.675Z,102268.19
2023-02-15T21:43:45.757Z,102263.09
2023-02-15T21:48:42.142Z,102261.28
2023-02-15T21:53:46.756Z,102260.09
2023-02-15T21:58:43.183Z,102258.91
2023-02-15T22:03:39.896Z,102268.03
2023-02-15T22:08:36.355Z,102272.53
2023-02-15T22:13:33.996Z,102268.78
2023-02-15T22:18:34.089Z,102257.91
2023-02-15T22:23:30.677Z,102267.59
2023-02-15T22:28:33.503Z,102263.38
2023-02-15T22:33:32.713Z,102261.44
2023-02-15T22:38:29.294Z,102259.31
2023-02-15T22:43:37.194Z,102265.03
2023-02-15T22:48:34.142Z,102260.66
2023-02-15T22:53:30.515Z,102254.16
2023-02-15T22:58:28.520Z,102242.09
2023-02-15T23:03:26.676Z,102236.97
2023-02-15T23:08:23.105Z,102237.16
2023-02-15T23:13:25.569Z,102229.66
2023-02-15T23:18:31.287Z,102230.84
2023-02-15T23:23:36.220Z,102230.84
2023-02-15T23:28:37.831Z,102225.91
2023-02-15T23:33:34.902Z,102222.44
2023-02-15T23:38:32.773Z,102221.09
2023-02-15T23:43:29.260Z,102234.59
2023-02-15T23:48:37.293Z,102220.22
2023-02-15T23:53:33.902Z,102221.38
2023-02-15T23:58:40.279Z,102231.75
